Flight Track Log - Related Links

Times and Time Zones

All times are in EDT time to prevent confusion due to time zone crossing. See the CCA1837 flight status page for this flight to view local times or setup timezone preferences in your user account.

Time Position Orientation Groundspeed Altitude Reporting Facility
EDT Latitude Longitude Course Direction KTS MPH feet Rate Location/Type
Tue 04:10:49 AM 31.1811 121.3329 179° South 149 171 1,200  Level FlightAware ADS-B (ZSSS / SHA)
Tue 04:11:04 AM 31.1709 121.3332 178° South 144 166 2,000 2,600 Climbing FlightAware ADS-B (ZSSS / SHA)
Tue 04:11:19 AM 31.1621 121.3336 177° South 139 160 2,500 1,920 Climbing FlightAware ADS-B (ZSSS / SHA)
Tue 04:11:29 AM 31.1551 121.3326 196° South 142 163 2,800 2,000 Climbing FlightAware ADS-B (ZSSS / SHA)
Tue 04:11:34 AM 31.1521 121.3310 201° Southwest 144 166 3,000 1,800 Climbing FlightAware ADS-B (ZSSS / SHA)
Tue 04:11:39 AM 31.1490 121.3282 224° Southwest 154 177 3,100 1,200 Climbing FlightAware ADS-B (ZSSS / SHA)
Tue 04:11:44 AM 31.1469 121.3250 229° Southwest 158 182 3,200 1,200 Climbing FlightAware ADS-B (ZSSS / SHA)
Tue 04:11:49 AM 31.1450 121.3213 242° Southwest 168 193 3,300 900 Climbing FlightAware ADS-B (ZSSS / SHA)
Tue 04:12:04 AM 31.1392 121.3077 245° Southwest 188 216 3,500 800 Climbing FlightAware ADS-B (ZSSS / SHA)
Tue 04:12:19 AM 31.1339 121.2943 246° West 210 242 3,700 1,000 Climbing FlightAware ADS-B (ZSSS / SHA)
Tue 04:12:34 AM 31.1270 121.2762 246° West 235 270 4,000 1,400 Climbing FlightAware ADS-B (ZSSS / SHA)
Tue 04:12:49 AM 31.1201 121.2585 246° West 256 295 4,400 1,862 Climbing FlightAware ADS-B (ZSSS / SHA)
Tue 04:13:03 AM 31.1131 121.2406 246° West 267 307 4,900 2,743 Climbing FlightAware ADS-B (ZSSS / SHA)
Tue 04:13:24 AM 31.1020 121.2120 246° West 267 307 6,000 2,824 Climbing FlightAware ADS-B (ZSSS / SHA)
Tue 04:13:37 AM 31.0966 121.1983 246° West 270 311 6,500 3,000 Climbing FlightAware ADS-B (ZSSS / SHA)
Tue 04:13:52 AM 31.0875 121.1755 246° West 272 313 7,400 3,600 Climbing FlightAware ADS-B (ZSSS / SHA)
Tue 04:16:00 AM 30.9581 121.0290 224° Southwest  Level Estimated
Tue 04:17:00 AM 30.8974 120.9604 224° Southwest  Level Estimated
Tue 04:18:00 AM 30.8366 120.8919 224° Southwest  Level Estimated
Tue 04:19:00 AM 30.7758 120.8235 224° Southwest  Level Estimated
Tue 04:20:00 AM 30.7149 120.7552 224° Southwest  Level Estimated
Tue 04:21:00 AM 30.6541 120.6870 224° Southwest  Level Estimated
Tue 04:22:00 AM 30.5932 120.6188 224° Southwest  Level Estimated
Tue 04:23:00 AM 30.5322 120.5508 224° Southwest  Level Estimated
Tue 04:24:00 AM 30.4712 120.4828 224° Southwest  Level Estimated
Tue 04:25:00 AM 30.4102 120.4149 224° Southwest  Level Estimated
Tue 04:26:00 AM 30.3492 120.3471 224° Southwest  Level Estimated
Tue 04:27:00 AM 30.2881 120.2794 224° Southwest  Level Estimated
Tue 04:28:00 AM 30.2270 120.2117 224° Southwest  Level Estimated
Tue 04:29:00 AM 30.1658 120.1442 224° Southwest  Level Estimated
Tue 04:30:00 AM 30.1046 120.0767 224° Southwest  Level Estimated
Tue 04:31:00 AM 30.0434 120.0093 224° Southwest  Level Estimated
Tue 04:32:00 AM 29.9821 119.9420 224° Southwest  Level Estimated
Tue 04:33:00 AM 29.9209 119.8748 224° Southwest  Level Estimated
Tue 04:34:00 AM 29.8595 119.8077 224° Southwest  Level Estimated
Tue 04:35:00 AM 29.7982 119.7406 223° Southwest  Level Estimated
Tue 04:36:00 AM 29.7368 119.6737 223° Southwest  Level Estimated
Tue 04:37:00 AM 29.6753 119.6068 223° Southwest  Level Estimated
Tue 04:38:00 AM 29.6139 119.5400 223° Southwest  Level Estimated
Tue 04:39:00 AM 29.5524 119.4733 223° Southwest  Level Estimated
Tue 04:40:00 AM 29.4909 119.4066 223° Southwest  Level Estimated
Tue 04:41:00 AM 29.4293 119.3401 223° Southwest  Level Estimated
Tue 04:42:00 AM 29.3677 119.2736 223° Southwest  Level Estimated
Tue 04:43:00 AM 29.3061 119.2072 223° Southwest  Level Estimated
Tue 04:44:00 AM 29.2444 119.1409 223° Southwest  Level Estimated
Tue 04:45:00 AM 29.1827 119.0746 223° Southwest  Level Estimated
Tue 04:46:00 AM 29.1210 119.0085 223° Southwest  Level Estimated
Tue 04:47:00 AM 29.0592 118.9424 223° Southwest  Level Estimated
Tue 04:48:00 AM 28.9974 118.8764 223° Southwest  Level Estimated
Tue 04:49:00 AM 28.9356 118.8104 223° Southwest  Level Estimated
Tue 04:50:00 AM 28.8738 118.7446 223° Southwest  Level Estimated
Tue 04:51:00 AM 28.8119 118.6788 223° Southwest  Level Estimated
Tue 04:52:00 AM 28.7500 118.6132 223° Southwest  Level Estimated
Tue 04:53:00 AM 28.6880 118.5475 223° Southwest  Level Estimated
Tue 04:54:00 AM 28.6260 118.4820 223° Southwest  Level Estimated
Tue 04:55:00 AM 28.5640 118.4166 223° Southwest  Level Estimated
Tue 04:56:00 AM 28.5020 118.3512 223° Southwest  Level Estimated
Tue 04:57:00 AM 28.4399 118.2859 223° Southwest  Level Estimated
Tue 04:58:00 AM 28.3778 118.2206 223° Southwest  Level Estimated
Tue 04:59:00 AM 28.3157 118.1555 223° Southwest  Level Estimated
Tue 05:00:00 AM 28.2535 118.0904 223° Southwest  Level Estimated
Tue 05:01:00 AM 28.1913 118.0254 223° Southwest  Level Estimated
Tue 05:02:00 AM 28.1291 117.9605 223° Southwest  Level Estimated
Tue 05:03:00 AM 28.0668 117.8957 223° Southwest  Level Estimated
Tue 05:04:00 AM 28.0045 117.8309 223° Southwest  Level Estimated
Tue 05:05:00 AM 27.9422 117.7662 223° Southwest  Level Estimated
Tue 05:06:00 AM 27.8799 117.7016 222° Southwest  Level Estimated
Tue 05:07:00 AM 27.8175 117.6370 222° Southwest  Level Estimated
Tue 05:08:00 AM 27.7551 117.5726 222° Southwest  Level Estimated
Tue 05:09:00 AM 27.6926 117.5082 222° Southwest  Level Estimated
Tue 05:10:00 AM 27.6301 117.4438 222° Southwest  Level Estimated
Tue 05:11:00 AM 27.5676 117.3796 222° Southwest  Level Estimated
Tue 05:12:00 AM 27.5051 117.3154 222° Southwest  Level Estimated
Tue 05:13:00 AM 27.4426 117.2513 222° Southwest  Level Estimated
Tue 05:14:00 AM 27.3800 117.1873 222° Southwest  Level Estimated
Tue 05:15:00 AM 27.3174 117.1233 222° Southwest  Level Estimated
Tue 05:16:00 AM 27.2547 117.0594 222° Southwest  Level Estimated
Tue 05:17:00 AM 27.1920 116.9956 222° Southwest  Level Estimated
Tue 05:18:00 AM 27.1293 116.9319 222° Southwest  Level Estimated
Tue 05:19:00 AM 27.0666 116.8682 222° Southwest  Level Estimated
Tue 05:20:00 AM 27.0038 116.8046 222° Southwest  Level Estimated
Tue 05:21:00 AM 26.9410 116.7411 222° Southwest  Level Estimated
Tue 05:22:00 AM 26.8782 116.6776 222° Southwest  Level Estimated
Tue 05:23:00 AM 26.8154 116.6142 222° Southwest  Level Estimated
Tue 05:24:00 AM 26.7525 116.5509 222° Southwest  Level Estimated
Tue 05:25:00 AM 26.6896 116.4877 222° Southwest  Level Estimated
Tue 05:26:00 AM 26.6267 116.4245 222° Southwest  Level Estimated
Tue 05:27:00 AM 26.5637 116.3614 222° Southwest  Level Estimated
Tue 05:28:00 AM 26.5007 116.2983 222° Southwest  Level Estimated
Tue 05:29:00 AM 26.4377 116.2354 222° Southwest  Level Estimated
Tue 05:30:00 AM 26.3747 116.1724 222° Southwest  Level Estimated
Tue 05:31:00 AM 26.3116 116.1096 222° Southwest  Level Estimated
Tue 05:32:00 AM 26.2485 116.0469 222° Southwest  Level Estimated
Tue 05:33:00 AM 26.1854 115.9842 222° Southwest  Level Estimated
Tue 05:34:00 AM 26.1222 115.9215 222° Southwest  Level Estimated
Tue 05:35:00 AM 26.0590 115.8590 222° Southwest  Level Estimated
Tue 05:36:00 AM 25.9958 115.7965 222° Southwest  Level Estimated
Tue 05:37:00 AM 25.9326 115.7340 222° Southwest  Level Estimated
Tue 05:38:00 AM 25.8693 115.6717 222° Southwest  Level Estimated
Tue 05:39:00 AM 25.8060 115.6094 222° Southwest  Level Estimated
Tue 05:40:00 AM 25.7427 115.5472 222° Southwest  Level Estimated
Tue 05:41:00 AM 25.6794 115.4850 221° Southwest  Level Estimated
Tue 05:42:00 AM 25.6160 115.4229 221° Southwest  Level Estimated
Tue 05:43:00 AM 25.5526 115.3609 221° Southwest  Level Estimated
Tue 05:44:00 AM 25.4892 115.2989 221° Southwest  Level Estimated
Tue 05:45:00 AM 25.4258 115.2370 221° Southwest  Level Estimated
Tue 05:46:00 AM 25.3623 115.1752 221° Southwest  Level Estimated
Tue 05:47:00 AM 25.2988 115.1134 221° Southwest  Level Estimated
Tue 05:48:00 AM 25.2353 115.0517 221° Southwest  Level Estimated
Tue 05:49:00 AM 25.1717 114.9901 221° Southwest  Level Estimated
Tue 05:50:00 AM 25.1082 114.9285 221° Southwest  Level Estimated
Tue 05:51:00 AM 25.0446 114.8670 221° Southwest  Level Estimated
Tue 05:52:00 AM 24.9810 114.8056 221° Southwest  Level Estimated
Tue 05:53:00 AM 24.9173 114.7442 221° Southwest  Level Estimated
Tue 05:54:00 AM 24.8536 114.6829 221° Southwest  Level Estimated
Tue 05:55:00 AM 24.7899 114.6216 221° Southwest  Level Estimated
Tue 05:56:00 AM 24.7262 114.5604 221° Southwest  Level Estimated
Tue 05:57:00 AM 24.6625 114.4993 221° Southwest  Level Estimated
Tue 05:58:00 AM 24.5987 114.4382 221° Southwest  Level Estimated
Tue 05:59:00 AM 24.5349 114.3772 221° Southwest  Level Estimated
Tue 06:00:00 AM 24.4711 114.3163 221° Southwest  Level Estimated
Tue 06:01:00 AM 24.4072 114.2554 221° Southwest  Level Estimated
Tue 06:02:00 AM 24.3434 114.1946 221° Southwest  Level Estimated
Tue 06:03:00 AM 24.2795 114.1338 221° Southwest  Level Estimated
Tue 06:04:00 AM 24.2155 114.0731 221° Southwest  Level Estimated
Tue 06:05:00 AM 24.1516 114.0125 221° Southwest  Level Estimated
Tue 06:06:00 AM 24.0876 113.9519 221° Southwest  Level Estimated
Tue 06:07:00 AM 24.0236 113.8914 221° Southwest  Level Estimated
Tue 06:08:00 AM 23.9596 113.8309 221° Southwest  Level Estimated
Tue 06:09:00 AM 23.8956 113.7705 221° Southwest  Level Estimated
Tue 06:10:00 AM 23.8315 113.7102 221° Southwest  Level Estimated
Tue 06:11:00 AM 23.7675 113.6499 221° Southwest  Level Estimated
Tue 06:12:00 AM 23.7034 113.5897 221° Southwest  Level Estimated
Tue 06:13:00 AM 23.6392 113.5295 221° Southwest  Level Estimated
Tue 06:14:00 AM 23.5751 113.4694 221° Southwest  Level Estimated
Tue 06:15:00 AM 23.5109 113.4094 221° Southwest  Level Estimated
Tue 06:16:00 AM 23.4467 113.3494 221° Southwest  Level Estimated
Tue 06:17:00 AM 23.3924 113.2988 221° Southwest  Level Estimated
Tue 06:18:00 AM 23.3924 113.2988 North  Level Estimated
Tue 06:19:00 AM 23.3924 113.2988 North  Level Estimated
Tue 06:20:00 AM 23.3924 113.2988 North  Level Estimated
Tue 06:21:00 AM 23.3924 113.2988 North  Level Estimated
Tue 06:22:00 AM 23.3924 113.2988 North  Level Estimated
Tue 06:23:00 AM 23.3924 113.2988 North  Level Estimated
Tue 06:24:00 AM 23.3924 113.2988 North  Level Estimated
Tue 06:25:00 AM 23.3924 113.2988 North  Level Estimated
Tue 06:26:00 AM 23.3924 113.2988 North  Level Estimated
Tue 06:27:00 AM 23.3924 113.2988 North  Level Estimated
Tue 06:28:00 AM 23.3924 113.2988 North  Level Estimated
Tue 06:29:00 AM 23.3924 113.2988 North  Level Estimated
Tue 06:30:00 AM 23.3924 113.2988 North  Level Estimated
Tue 06:31:00 AM 23.3924 113.2988 North  Level Estimated

Login

Don't have an account? Register now (free) for customized features, flight alerts, and more!